Time,TemperatureF,DewpointF,PressureIn,WindDirection,WindDirectionDegrees,WindSpeedMPH,WindSpeedGustMPH,Humidity,HourlyPrecipIn,Conditions,Clouds,dailyrainin,SoftwareType,DateUTC
2013-01-21 00:10:00,29.0,8.7,30.00,North,355,2.0,2.0,42,0.00,,,0.00,Wunderground v.1.15,2013-01-21 05:10:00,
2013-01-21 00:15:00,28.8,8.6,30.00,WNW,287,3.0,5.0,42,0.00,,,0.00,Wunderground v.1.15,2013-01-21 05:15:00,
2013-01-21 00:20:00,28.8,8.0,30.00,WNW,290,4.0,4.0,41,0.00,,,0.00,Wunderground v.1.15,2013-01-21 05:20:00,
2013-01-21 00:25:00,28.8,8.0,30.00,NNW,342,4.0,6.0,41,0.00,,,0.00,Wunderground v.1.15,2013-01-21 05:25:00,
2013-01-21 00:35:00,28.5,8.3,30.00,NNW,344,3.0,4.0,42,0.00,,,0.00,Wunderground v.1.15,2013-01-21 05:35:00,
2013-01-21 00:45:00,28.4,7.7,30.00,WNW,291,3.0,3.0,41,0.00,,,0.00,Wunderground v.1.15,2013-01-21 05:45:00,
2013-01-21 00:55:00,28.4,8.2,30.00,NW,315,3.0,9.0,42,0.00,,,0.00,Wunderground v.1.15,2013-01-21 05:55:00,
2013-01-21 01:06:00,28.2,8.5,30.00,NNW,344,3.0,4.0,43,0.00,,,0.00,Wunderground v.1.15,2013-01-21 06:06:00,
2013-01-21 01:15:00,28.1,9.5,30.00,North,355,3.0,7.0,45,0.00,,,0.00,Wunderground v.1.15,2013-01-21 06:15:00,
2013-01-21 01:25:00,27.8,8.2,30.01,WNW,302,2.0,3.0,43,0.00,,,0.00,Wunderground v.1.15,2013-01-21 06:25:00,
2013-01-21 01:35:00,27.6,7.5,30.02,NW,316,2.0,3.0,42,0.00,,,0.00,Wunderground v.1.15,2013-01-21 06:35:00,
2013-01-21 01:45:00,27.5,7.9,30.02,NW,322,1.0,1.0,43,0.00,,,0.00,Wunderground v.1.15,2013-01-21 06:45:00,
2013-01-21 01:55:00,27.3,7.7,30.02,NW,325,2.0,2.0,43,0.00,,,0.00,Wunderground v.1.15,2013-01-21 06:55:00,
2013-01-21 02:05:00,27.0,8.5,30.03,West,281,2.0,2.0,45,0.00,,,0.00,Wunderground v.1.15,2013-01-21 07:05:00,
2013-01-21 02:15:00,26.7,8.7,30.03,NW,326,1.0,1.0,46,0.00,,,0.00,Wunderground v.1.15,2013-01-21 07:15:00,
2013-01-21 02:25:00,26.7,7.7,30.03,NW,316,1.0,1.0,44,0.00,,,0.00,Wunderground v.1.15,2013-01-21 07:25:00,
2013-01-21 02:35:00,26.6,8.6,30.03,NW,316,1.0,1.0,46,0.00,,,0.00,Wunderground v.1.15,2013-01-21 07:35:00,
2013-01-21 02:45:00,26.1,8.6,30.03,NW,315,0.0,0.0,47,0.00,,,0.00,Wunderground v.1.15,2013-01-21 07:45:00,
2013-01-21 02:55:00,25.8,8.8,30.03,NW,315,0.0,0.0,48,0.00,,,0.00,Wunderground v.1.15,2013-01-21 07:55:00,
2013-01-21 03:05:00,25.6,9.5,30.03,NW,315,0.0,0.0,50,0.00,,,0.00,Wunderground v.1.15,2013-01-21 08:05:00,
2013-01-21 03:15:00,25.3,9.7,30.03,NW,315,0.0,0.0,51,0.00,,,0.00,Wunderground v.1.15,2013-01-21 08:15:00,
2013-01-21 03:25:00,25.1,9.0,30.03,NW,315,0.0,0.0,50,0.00,,,0.00,Wunderground v.1.15,2013-01-21 08:25:00,
2013-01-21 03:40:00,24.7,10.8,30.03,NW,315,0.0,0.0,55,0.00,,,0.00,Wunderground v.1.15,2013-01-21 08:40:00,
2013-01-21 03:45:00,24.5,10.2,30.03,NW,315,0.0,0.0,54,0.00,,,0.00,Wunderground v.1.15,2013-01-21 08:45:00,
2013-01-21 03:55:00,24.5,10.2,30.03,NW,315,0.0,0.0,54,0.00,,,0.00,Wunderground v.1.15,2013-01-21 08:55:00,
2013-01-21 04:10:00,24.2,10.3,30.03,NW,315,0.0,0.0,55,0.00,,,0.00,Wunderground v.1.15,2013-01-21 09:10:00,
2013-01-21 04:15:00,24.2,9.9,30.03,NW,315,0.0,0.0,54,0.00,,,0.00,Wunderground v.1.15,2013-01-21 09:15:00,
2013-01-21 04:25:00,23.9,11.3,30.03,NW,315,0.0,0.0,58,0.00,,,0.00,Wunderground v.1.15,2013-01-21 09:25:00,
2013-01-21 04:35:00,23.6,11.4,30.03,NW,315,0.0,0.0,59,0.00,,,0.00,Wunderground v.1.15,2013-01-21 09:35:00,
2013-01-21 04:45:00,23.3,11.1,30.03,NW,315,0.0,0.0,59,0.00,,,0.00,Wunderground v.1.15,2013-01-21 09:45:00,
2013-01-21 04:55:00,23.3,11.1,30.03,NW,315,0.0,0.0,59,0.00,,,0.00,Wunderground v.1.15,2013-01-21 09:55:00,
2013-01-21 05:05:00,23.2,11.0,30.03,NW,315,0.0,0.0,59,0.00,,,0.00,Wunderground v.1.15,2013-01-21 10:05:00,
2013-01-21 05:15:00,23.0,11.5,30.03,NW,315,0.0,0.0,61,0.00,,,0.00,Wunderground v.1.15,2013-01-21 10:15:00,
2013-01-21 05:25:00,22.7,12.3,30.03,NW,315,0.0,0.0,64,0.00,,,0.00,Wunderground v.1.15,2013-01-21 10:25:00,
2013-01-21 05:35:00,22.5,11.8,30.03,NW,315,0.0,0.0,63,0.00,,,0.00,Wunderground v.1.15,2013-01-21 10:35:00,
2013-01-21 05:45:00,22.5,12.1,30.03,NW,315,0.0,0.0,64,0.00,,,0.00,Wunderground v.1.15,2013-01-21 10:45:00,
2013-01-21 05:55:00,22.4,11.7,30.03,NW,315,0.0,0.0,63,0.00,,,0.00,Wunderground v.1.15,2013-01-21 10:55:00,
2013-01-21 06:05:00,22.2,12.2,30.04,NW,315,0.0,0.0,65,0.00,,,0.00,Wunderground v.1.15,2013-01-21 11:05:00,
2013-01-21 06:15:00,22.2,12.6,30.04,NW,315,0.0,0.0,66,0.00,,,0.00,Wunderground v.1.15,2013-01-21 11:15:00,
2013-01-21 06:25:00,22.2,12.6,30.04,NW,315,0.0,0.0,66,0.00,,,0.00,Wunderground v.1.15,2013-01-21 11:25:00,
2013-01-21 06:35:00,22.2,12.6,30.05,NW,315,0.0,0.0,66,0.00,,,0.00,Wunderground v.1.15,2013-01-21 11:35:00,
2013-01-21 06:45:00,22.2,12.9,30.05,NW,315,0.0,0.0,67,0.00,,,0.00,Wunderground v.1.15,2013-01-21 11:45:00,
2013-01-21 06:55:00,22.5,13.5,30.04,NW,315,0.0,0.0,68,0.00,,,0.00,Wunderground v.1.15,2013-01-21 11:55:00,
2013-01-21 07:05:00,22.5,13.9,30.04,NW,315,0.0,0.0,69,0.00,,,0.00,Wunderground v.1.15,2013-01-21 12:05:00,
2013-01-21 07:15:00,22.9,14.6,30.04,NW,315,0.0,0.0,70,0.00,,,0.00,Wunderground v.1.15,2013-01-21 12:15:00,
2013-01-21 07:25:00,23.0,14.7,30.04,NW,315,0.0,0.0,70,0.00,,,0.00,Wunderground v.1.15,2013-01-21 12:25:00,
2013-01-21 07:35:00,23.0,14.7,30.04,NW,315,0.0,0.0,70,0.00,,,0.00,Wunderground v.1.15,2013-01-21 12:35:00,
2013-01-21 07:45:00,23.3,15.3,30.04,NW,315,0.0,0.0,71,0.00,,,0.00,Wunderground v.1.15,2013-01-21 12:45:00,
2013-01-21 07:55:00,23.6,15.6,30.04,NW,315,0.0,0.0,71,0.00,,,0.00,Wunderground v.1.15,2013-01-21 12:55:00,
2013-01-21 08:06:00,23.9,15.9,30.04,NW,315,0.0,0.0,71,0.00,,,0.00,Wunderground v.1.15,2013-01-21 13:06:00,
2013-01-21 08:15:00,24.7,16.0,30.04,NW,315,0.0,0.0,69,0.00,,,0.00,Wunderground v.1.15,2013-01-21 13:15:00,
2013-01-21 08:25:00,25.6,15.5,30.04,NW,315,0.0,0.0,65,0.00,,,0.00,Wunderground v.1.15,2013-01-21 13:25:00,
2013-01-21 08:35:00,26.3,13.9,30.05,NW,315,0.0,0.0,59,0.00,,,0.00,Wunderground v.1.15,2013-01-21 13:35:00,
2013-01-21 08:45:00,26.9,13.3,30.05,NW,315,0.0,0.0,56,0.00,,,0.00,Wunderground v.1.15,2013-01-21 13:45:00,
2013-01-21 08:55:00,27.2,11.9,30.05,NW,315,1.0,2.0,52,0.00,,,0.00,Wunderground v.1.15,2013-01-21 13:55:00,
2013-01-21 09:06:00,27.6,11.8,30.05,NW,315,1.0,1.0,51,0.00,,,0.00,Wunderground v.1.15,2013-01-21 14:06:00,
2013-01-21 09:15:00,27.6,10.9,30.05,NW,315,0.0,1.0,49,0.00,,,0.00,Wunderground v.1.15,2013-01-21 14:15:00,
2013-01-21 09:25:00,27.9,11.2,30.05,NW,315,0.0,0.0,49,0.00,,,0.00,Wunderground v.1.15,2013-01-21 14:25:00,
2013-01-21 09:35:00,28.1,11.4,30.05,NW,315,1.0,1.0,49,0.00,,,0.00,Wunderground v.1.15,2013-01-21 14:35:00,
2013-01-21 09:45:00,28.1,10.9,30.05,NW,315,1.0,1.0,48,0.00,,,0.00,Wunderground v.1.15,2013-01-21 14:45:00,
2013-01-21 09:55:00,28.4,10.2,30.05,NW,315,0.0,1.0,46,0.00,,,0.00,Wunderground v.1.15,2013-01-21 14:55:00,
2013-01-21 10:05:00,28.5,10.8,30.05,NW,315,0.0,2.0,47,0.00,,,0.00,Wunderground v.1.15,2013-01-21 15:05:00,
2013-01-21 10:15:00,28.7,10.5,30.05,SW,220,1.0,1.0,46,0.00,,,0.00,Wunderground v.1.15,2013-01-21 15:15:00,
2013-01-21 10:25:00,28.8,10.1,30.05,SW,220,0.0,1.0,45,0.00,,,0.00,Wunderground v.1.15,2013-01-21 15:25:00,
2013-01-21 10:35:00,29.1,9.9,30.03,SW,220,1.0,1.0,44,0.00,,,0.00,Wunderground v.1.15,2013-01-21 15:35:00,
2013-01-21 10:45:00,29.4,10.6,30.03,WSW,238,1.0,2.0,45,0.00,,,0.00,Wunderground v.1.15,2013-01-21 15:45:00,
2013-01-21 10:55:00,29.4,10.1,30.03,SSE,162,2.0,2.0,44,0.00,,,0.00,Wunderground v.1.15,2013-01-21 15:55:00,
2013-01-21 11:05:00,30.0,10.7,30.01,SSE,162,1.0,2.0,44,0.00,,,0.00,Wunderground v.1.15,2013-01-21 16:05:00,
2013-01-21 11:15:00,29.8,11.0,30.01,SSE,162,1.0,2.0,45,0.00,,,0.00,Wunderground v.1.15,2013-01-21 16:15:00,
2013-01-21 11:20:00,29.8,10.5,30.00,SSE,164,1.0,1.0,44,0.00,,,0.00,Wunderground v.1.15,2013-01-21 16:20:00,
2013-01-21 11:25:00,29.8,11.0,30.00,WSW,240,1.0,2.0,45,0.00,,,0.00,Wunderground v.1.15,2013-01-21 16:25:00,
2013-01-21 11:35:00,29.8,11.0,29.99,WSW,258,2.0,2.0,45,0.00,,,0.00,Wunderground v.1.15,2013-01-21 16:35:00,
2013-01-21 11:45:00,29.7,10.4,29.99,WSW,248,2.0,4.0,44,0.00,,,0.00,Wunderground v.1.15,2013-01-21 16:45:00,
2013-01-21 11:55:00,29.8,10.0,29.98,SW,217,2.0,2.0,43,0.00,,,0.00,Wunderground v.1.15,2013-01-21 16:55:00,
2013-01-21 12:05:00,30.0,10.2,29.97,WSW,238,2.0,2.0,43,0.00,,,0.00,Wunderground v.1.15,2013-01-21 17:05:00,
2013-01-21 12:15:00,30.3,10.4,29.97,South,172,1.0,3.0,43,0.00,,,0.00,Wunderground v.1.15,2013-01-21 17:15:00,
2013-01-21 12:25:00,30.3,9.9,29.96,WSW,240,2.0,3.0,42,0.00,,,0.00,Wunderground v.1.15,2013-01-21 17:25:00,
2013-01-21 12:35:00,30.3,11.0,29.95,WSW,244,2.0,2.0,44,0.00,,,0.00,Wunderground v.1.15,2013-01-21 17:35:00,
2013-01-21 12:45:00,30.3,11.0,29.95,South,184,2.0,3.0,44,0.00,,,0.00,Wunderground v.1.15,2013-01-21 17:45:00,
2013-01-21 12:55:00,30.3,11.5,29.94,SW,217,2.0,2.0,45,0.00,,,0.00,Wunderground v.1.15,2013-01-21 17:55:00,
2013-01-21 13:05:00,30.4,11.6,29.93,SW,214,2.0,3.0,45,0.00,,,0.00,Wunderground v.1.15,2013-01-21 18:05:00,
2013-01-21 13:15:00,30.7,11.3,29.93,WSW,256,2.0,4.0,44,0.00,,,0.00,Wunderground v.1.15,2013-01-21 18:15:00,
2013-01-21 13:25:00,30.7,11.3,29.93,SSW,196,2.0,2.0,44,0.00,,,0.00,Wunderground v.1.15,2013-01-21 18:25:00,
2013-01-21 13:35:00,30.9,12.5,29.92,SW,230,3.0,3.0,46,0.00,,,0.00,Wunderground v.1.15,2013-01-21 18:35:00,
2013-01-21 13:45:00,31.2,12.8,29.92,SW,218,1.0,2.0,46,0.00,,,0.00,Wunderground v.1.15,2013-01-21 18:45:00,
2013-01-21 13:55:00,31.2,12.8,29.92,SW,225,2.0,4.0,46,0.00,,,0.00,Wunderground v.1.15,2013-01-21 18:55:00,
2013-01-21 14:06:00,31.2,12.8,29.91,SW,227,3.0,3.0,46,0.00,,,0.00,Wunderground v.1.15,2013-01-21 19:06:00,
2013-01-21 14:15:00,31.0,12.6,29.91,SW,231,2.0,3.0,46,0.00,,,0.00,Wunderground v.1.15,2013-01-21 19:15:00,
2013-01-21 14:25:00,31.0,12.6,29.91,SW,229,1.0,2.0,46,0.00,,,0.00,Wunderground v.1.15,2013-01-21 19:25:00,
2013-01-21 14:35:00,31.0,13.1,29.91,South,183,2.0,2.0,47,0.00,,,0.00,Wunderground v.1.15,2013-01-21 19:35:00,
2013-01-21 14:45:00,31.2,12.8,29.91,West,266,1.0,3.0,46,0.00,,,0.00,Wunderground v.1.15,2013-01-21 19:45:00,
2013-01-21 14:55:00,31.2,13.3,29.90,WSW,249,2.0,3.0,47,0.00,,,0.00,Wunderground v.1.15,2013-01-21 19:55:00,
2013-01-21 15:05:00,30.9,13.5,29.90,WSW,240,2.0,2.0,48,0.00,,,0.00,Wunderground v.1.15,2013-01-21 20:05:00,
2013-01-21 15:15:00,30.9,13.5,29.90,SSW,213,1.0,3.0,48,0.00,,,0.00,Wunderground v.1.15,2013-01-21 20:15:00,
2013-01-21 15:25:00,30.9,13.0,29.88,SW,229,2.0,2.0,47,0.00,,,0.00,Wunderground v.1.15,2013-01-21 20:25:00,
2013-01-21 15:35:00,30.9,14.0,29.87,SW,229,0.0,1.0,49,0.00,,,0.00,Wunderground v.1.15,2013-01-21 20:35:00,
2013-01-21 15:45:00,30.9,13.5,29.87,SW,229,1.0,1.0,48,0.00,,,0.00,Wunderground v.1.15,2013-01-21 20:45:00,
2013-01-21 15:55:00,30.9,14.0,29.86,SSW,213,2.0,2.0,49,0.00,,,0.00,Wunderground v.1.15,2013-01-21 20:55:00,
2013-01-21 16:06:00,30.9,14.4,29.86,SW,232,1.0,2.0,50,0.00,,,0.00,Wunderground v.1.15,2013-01-21 21:06:00,
2013-01-21 16:15:00,30.7,14.2,29.86,SW,232,1.0,2.0,50,0.00,,,0.00,Wunderground v.1.15,2013-01-21 21:15:00,
2013-01-21 16:25:00,30.6,14.1,29.86,SSE,161,1.0,2.0,50,0.00,,,0.00,Wunderground v.1.15,2013-01-21 21:25:00,
2013-01-21 16:35:00,30.6,14.1,29.85,WSW,256,1.0,3.0,50,0.00,,,0.00,Wunderground v.1.15,2013-01-21 21:35:00,
2013-01-21 16:45:00,30.6,15.9,29.85,NW,304,1.0,1.0,54,0.00,,,0.00,Wunderground v.1.15,2013-01-21 21:45:00,
2013-01-21 16:55:00,30.3,15.2,29.85,WSW,238,0.0,3.0,53,0.00,,,0.00,Wunderground v.1.15,2013-01-21 21:55:00,
2013-01-21 17:05:00,30.1,15.0,29.85,WSW,238,0.0,0.0,53,0.00,,,0.00,Wunderground v.1.15,2013-01-21 22:05:00,
2013-01-21 17:15:00,30.1,15.0,29.85,WSW,238,0.0,0.0,53,0.00,,,0.00,Wunderground v.1.15,2013-01-21 22:15:00,
2013-01-21 17:25:00,30.1,15.4,29.85,WSW,238,0.0,0.0,54,0.00,,,0.00,Wunderground v.1.15,2013-01-21 22:25:00,
2013-01-21 17:35:00,30.1,15.9,29.85,WSW,238,0.0,0.0,55,0.00,,,0.00,Wunderground v.1.15,2013-01-21 22:35:00,
2013-01-21 17:45:00,30.0,15.3,29.85,WSW,238,0.0,0.0,54,0.00,,,0.00,Wunderground v.1.15,2013-01-21 22:45:00,
2013-01-21 17:55:00,30.0,15.3,29.85,WSW,238,0.0,0.0,54,0.00,,,0.00,Wunderground v.1.15,2013-01-21 22:55:00,
2013-01-21 18:05:00,30.0,15.8,29.85,WSW,238,0.0,0.0,55,0.00,,,0.00,Wunderground v.1.15,2013-01-21 23:05:00,
2013-01-21 18:15:00,30.0,15.3,29.85,WSW,238,0.0,1.0,54,0.00,,,0.00,Wunderground v.1.15,2013-01-21 23:15:00,
2013-01-21 18:25:00,30.0,15.3,29.85,WSW,238,0.0,0.0,54,0.00,,,0.00,Wunderground v.1.15,2013-01-21 23:25:00,
2013-01-21 18:35:00,30.0,15.3,29.85,WSW,238,0.0,1.0,54,0.00,,,0.00,Wunderground v.1.15,2013-01-21 23:35:00,
2013-01-21 18:45:00,30.0,15.3,29.85,WSW,238,0.0,0.0,54,0.00,,,0.00,Wunderground v.1.15,2013-01-21 23:45:00,
2013-01-21 18:55:00,29.8,15.2,29.84,WSW,238,0.0,0.0,54,0.00,,,0.00,Wunderground v.1.15,2013-01-21 23:55:00,
2013-01-21 19:05:00,29.8,15.2,29.84,WSW,238,0.0,1.0,54,0.00,,,0.00,Wunderground v.1.15,2013-01-22 00:05:00,
2013-01-21 19:15:00,29.8,15.6,29.84,WSW,238,0.0,0.0,55,0.00,,,0.00,Wunderground v.1.15,2013-01-22 00:15:00,
2013-01-21 19:25:00,29.8,16.0,29.83,NW,307,1.0,1.0,56,0.00,,,0.00,Wunderground v.1.15,2013-01-22 00:25:00,
2013-01-21 19:35:00,29.8,16.0,29.84,NNW,340,1.0,1.0,56,0.00,,,0.00,Wunderground v.1.15,2013-01-22 00:35:00,
2013-01-21 19:45:00,29.7,16.3,29.84,NNW,340,1.0,2.0,57,0.00,,,0.00,Wunderground v.1.15,2013-01-22 00:45:00,
2013-01-21 19:55:00,29.7,16.7,29.84,North,5,2.0,2.0,58,0.00,,,0.00,Wunderground v.1.15,2013-01-22 00:55:00,
2013-01-21 20:05:00,29.5,16.5,29.85,North,350,2.0,4.0,58,0.00,,,0.00,Wunderground v.1.15,2013-01-22 01:05:00,
2013-01-21 20:15:00,29.5,16.5,29.85,North,351,3.0,4.0,58,0.00,,,0.00,Wunderground v.1.15,2013-01-22 01:15:00,
2013-01-21 20:25:00,29.4,16.4,29.85,NNW,342,1.0,2.0,58,0.00,,,0.00,Wunderground v.1.15,2013-01-22 01:25:00,
2013-01-21 20:35:00,29.4,16.8,29.84,NNW,340,0.0,2.0,59,0.00,,,0.00,Wunderground v.1.15,2013-01-22 01:35:00,
2013-01-21 20:45:00,29.4,17.2,29.84,NNW,340,0.0,0.0,60,0.00,,,0.00,Wunderground v.1.15,2013-01-22 01:45:00,
2013-01-21 20:55:00,29.3,17.1,29.82,NNW,340,0.0,0.0,60,0.00,,,0.00,Wunderground v.1.15,2013-01-22 01:55:00,
2013-01-21 21:05:00,29.3,17.1,29.82,NNW,340,0.0,1.0,60,0.00,,,0.00,Wunderground v.1.15,2013-01-22 02:05:00,
2013-01-21 21:15:00,29.3,17.1,29.82,West,271,1.0,2.0,60,0.00,,,0.00,Wunderground v.1.15,2013-01-22 02:15:00,
2013-01-21 21:25:00,29.1,16.9,29.82,NW,318,0.0,1.0,60,0.00,,,0.00,Wunderground v.1.15,2013-01-22 02:25:00,
2013-01-21 21:35:00,29.1,16.9,29.81,NW,318,0.0,1.0,60,0.00,,,0.00,Wunderground v.1.15,2013-01-22 02:35:00,
2013-01-21 21:45:00,29.1,17.3,29.81,NW,317,0.0,1.0,61,0.00,,,0.00,Wunderground v.1.15,2013-01-22 02:45:00,
2013-01-21 21:55:00,29.1,17.3,29.81,NW,317,0.0,1.0,61,0.00,,,0.00,Wunderground v.1.15,2013-01-22 02:55:00,
2013-01-21 22:10:00,29.0,17.2,29.81,NW,322,1.0,4.0,61,0.00,,,0.00,Wunderground v.1.15,2013-01-22 03:10:00,
2013-01-21 22:15:00,29.0,17.2,29.81,NNW,338,2.0,4.0,61,0.00,,,0.00,Wunderground v.1.15,2013-01-22 03:15:00,
2013-01-21 22:25:00,29.0,17.2,29.80,NNW,327,2.0,3.0,61,0.00,,,0.00,Wunderground v.1.15,2013-01-22 03:25:00,
2013-01-21 22:35:00,28.8,17.4,29.80,WNW,290,2.0,4.0,62,0.00,,,0.00,Wunderground v.1.15,2013-01-22 03:35:00,
2013-01-21 22:45:00,28.7,17.3,29.80,NNW,327,1.0,2.0,62,0.00,,,0.00,Wunderground v.1.15,2013-01-22 03:45:00,
2013-01-21 22:55:00,28.5,17.5,29.80,WNW,282,1.0,1.0,63,0.00,,,0.00,Wunderground v.1.15,2013-01-22 03:55:00,
2013-01-21 23:06:00,28.2,17.2,29.80,WNW,297,1.0,2.0,63,0.00,,,0.00,Wunderground v.1.15,2013-01-22 04:06:00,
2013-01-21 23:15:00,28.1,17.5,29.80,WNW,294,1.0,2.0,64,0.00,,,0.00,Wunderground v.1.15,2013-01-22 04:15:00,
2013-01-21 23:25:00,27.8,17.2,29.79,NW,312,1.0,1.0,64,0.00,,,0.00,Wunderground v.1.15,2013-01-22 04:25:00,
2013-01-21 23:35:00,27.5,16.9,29.79,NW,311,1.0,3.0,64,0.00,,,0.00,Wunderground v.1.15,2013-01-22 04:35:00,
2013-01-21 23:45:00,27.3,16.7,29.79,NW,311,0.0,1.0,64,0.00,,,0.00,Wunderground v.1.15,2013-01-22 04:45:00,
2013-01-21 23:55:00,27.0,16.8,29.79,NW,311,0.0,0.0,65,0.00,,,0.00,Wunderground v.1.15,2013-01-22 04:55:00,